Time;durP1;ratioP1;P1;durP2;ratioP2;P2;SDS_P1;SDS_P2;PMS_P1;PMS_P2;Temp;Humidity;BMP_temperature;BMP_pressure;BME280_temperature;BME280_humidity;BME280_pressure;Samples;Min_cycle;Max_cycle;Signal;HPM_P1;HPM_P2
2022/02/03 00:00:03;;;;;;;54.67;18.48;;;;;;;;;;5169532;27;20122;-61
2022/02/03 00:02:37;;;;;;;49.88;17.88;;;;;;;;;;5168302;27;20061;-61
2022/02/03 00:08:01;;;;;;;73.85;18.80;;;;;;;;;;5168539;27;20446;-60
2022/02/03 00:22:03;;;;;;;82.53;22.40;;;;;;;;;;5147745;27;20103;-61
2022/02/03 00:24:21;;;;;;;68.15;19.13;;;;;;;;;;5148468;27;20080;-61
2022/02/03 00:26:56;;;;;;;84.90;23.20;;;;;;;;;;5148388;27;20448;-61
2022/02/03 00:38:17;;;;;;;90.65;24.33;;;;;;;;;;5144745;27;20054;-61
2022/02/03 00:48:56;;;;;;;71.90;22.35;;;;;;;;;;5145327;27;20065;-62
2022/02/03 00:51:23;;;;;;;64.85;22.10;;;;;;;;;;5144291;27;20431;-62
2022/02/03 00:53:50;;;;;;;71.68;20.35;;;;;;;;;;5145429;27;20470;-62
2022/02/03 00:56:17;;;;;;;64.25;20.60;;;;;;;;;;5139857;27;20043;-62
2022/02/03 00:58:50;;;;;;;62.22;19.38;;;;;;;;;;5123317;28;20090;-62
2022/02/03 01:01:18;;;;;;;54.35;18.75;;;;;;;;;;5123539;28;20052;-62
2022/02/03 01:03:44;;;;;;;;;;;;;;;;;;5124844;28;20572;-62
2022/02/03 01:06:14;;;;;;;45.65;16.58;;;;;;;;;;5123580;28;20078;-62
2022/02/03 01:08:44;;;;;;;55.63;18.27;;;;;;;;;;5143034;27;20078;-62
2022/02/03 01:11:17;;;;;;;54.38;19.02;;;;;;;;;;5153243;27;20059;-62
2022/02/03 01:16:26;;;;;;;49.70;17.90;;;;;;;;;;5126352;28;20035;-62
2022/02/03 01:35:08;;;;;;;60.47;18.63;;;;;;;;;;5167989;27;20054;-62
2022/02/03 01:37:51;;;;;;;63.25;19.77;;;;;;;;;;5166860;27;20127;-62
2022/02/03 01:53:29;;;;;;;40.15;16.00;;;;;;;;;;5167105;27;20053;-63
2022/02/03 01:56:02;;;;;;;48.03;17.20;;;;;;;;;;5162503;27;20095;-62
2022/02/03 01:58:30;;;;;;;29.30;12.90;;;;;;;;;;5146188;27;20055;-62
2022/02/03 02:01:01;;;;;;;39.97;15.93;;;;;;;;;;5146267;27;20039;-62
2022/02/03 02:03:43;;;;;;;40.72;16.02;;;;;;;;;;5146366;27;20047;-62
2022/02/03 02:06:18;;;;;;;44.28;17.63;;;;;;;;;;5145390;27;20039;-62
2022/02/03 02:08:46;;;;;;;48.13;18.77;;;;;;;;;;5145657;27;20099;-62
2022/02/03 02:11:38;;;;;;;49.60;18.95;;;;;;;;;;5153372;27;20971;-62
2022/02/03 02:19:18;;;;;;;50.88;20.75;;;;;;;;;;5166747;27;20051;-62
2022/02/03 02:38:41;;;;;;;75.22;28.58;;;;;;;;;;5145599;27;20114;-62
2022/02/03 02:44:11;;;;;;;69.45;29.60;;;;;;;;;;5166041;27;20070;-62
2022/02/03 02:46:43;;;;;;;76.25;27.73;;;;;;;;;;5101777;28;20085;-63
2022/02/03 02:49:14;;;;;;;60.00;26.50;;;;;;;;;;5102645;28;20043;-62
2022/02/03 02:51:54;;;;;;;70.68;28.77;;;;;;;;;;5092676;28;20052;-62
2022/02/03 02:54:42;;;;;;;68.32;27.70;;;;;;;;;;5081838;28;20101;-62
2022/02/03 02:57:54;;;;;;;73.00;28.55;;;;;;;;;;5081278;28;20064;-62
2022/02/03 03:03:11;;;;;;;71.95;29.08;;;;;;;;;;5081332;28;20440;-62
2022/02/03 03:33:19;;;;;;;64.25;25.98;;;;;;;;;;5169901;27;20050;-62
2022/02/03 03:35:49;;;;;;;65.18;25.05;;;;;;;;;;5162524;27;20051;-62
2022/02/03 03:38:20;;;;;;;54.28;26.15;;;;;;;;;;5128292;28;20131;-62
2022/02/03 03:40:52;;;;;;;66.50;27.50;;;;;;;;;;5128209;28;20383;-62
2022/02/03 03:43:24;;;;;;;70.75;28.30;;;;;;;;;;5127154;28;20048;-62
2022/02/03 03:45:52;;;;;;;59.47;27.30;;;;;;;;;;5131824;27;20091;-62
2022/02/03 03:48:20;;;;;;;60.00;25.90;;;;;;;;;;5149305;27;20043;-62
2022/02/03 03:50:49;;;;;;;59.45;27.55;;;;;;;;;;5149415;27;20037;-62
2022/02/03 03:53:25;;;;;;;61.10;24.50;;;;;;;;;;5148723;27;20115;-62
2022/02/03 03:56:01;;;;;;;57.10;25.13;;;;;;;;;;5147545;27;20067;-62
2022/02/03 05:02:09;;;;;;;49.22;26.15;;;;;;;;;;5125519;27;20073;-62
2022/02/03 05:05:11;;;;;;;49.47;25.13;;;;;;;;;;5126904;28;20040;-62
2022/02/03 05:19:02;;;;;;;49.25;25.08;;;;;;;;;;5147214;27;20050;-62
2022/02/03 05:44:54;;;;;;;58.88;30.52;;;;;;;;;;5022601;28;20079;-62
2022/02/03 06:02:03;;;;;;;61.42;32.35;;;;;;;;;;5059234;28;20067;-62
2022/02/03 06:14:39;;;;;;;83.68;39.75;;;;;;;;;;5062232;28;20053;-62
2022/02/03 06:17:28;;;;;;;85.30;38.17;;;;;;;;;;5071571;28;20048;-62
2022/02/03 06:22:44;;;;;;;77.85;37.13;;;;;;;;;;5165534;27;20049;-62
2022/02/03 06:27:44;;;;;;;74.88;34.33;;;;;;;;;;5150673;27;20043;-62
2022/02/03 06:30:12;;;;;;;72.97;35.33;;;;;;;;;;5145798;27;20039;-62
2022/02/03 06:32:42;;;;;;;72.97;34.85;;;;;;;;;;5144267;27;20055;-62
2022/02/03 06:35:09;;;;;;;69.60;34.72;;;;;;;;;;5145858;27;20043;-62
2022/02/03 06:37:35;;;;;;;73.53;34.65;;;;;;;;;;5148662;27;20051;-62
2022/02/03 06:40:02;;;;;;;81.03;38.22;;;;;;;;;;5147377;27;20053;-62
2022/02/03 06:42:28;;;;;;;81.27;38.67;;;;;;;;;;5144451;27;20049;-62
2022/02/03 06:44:59;;;;;;;92.32;40.85;;;;;;;;;;5146798;27;20421;-62
2022/02/03 06:53:02;;;;;;;77.93;37.20;;;;;;;;;;5150822;27;20055;-62
2022/02/03 06:55:35;;;;;;;78.60;36.47;;;;;;;;;;5144249;27;20092;-62
2022/02/03 06:58:12;;;;;;;86.05;38.40;;;;;;;;;;5162445;27;20050;-62
2022/02/03 07:00:44;;;;;;;75.20;37.45;;;;;;;;;;5151213;27;20054;-62
2022/02/03 07:03:18;;;;;;;78.18;38.03;;;;;;;;;;5146327;27;20046;-62
2022/02/03 07:05:44;;;;;;;87.30;40.45;;;;;;;;;;5145559;27;20066;-62
2022/02/03 07:08:17;;;;;;;81.55;39.95;;;;;;;;;;5151988;27;20046;-62
2022/02/03 07:10:44;;;;;;;81.10;37.05;;;;;;;;;;5144752;28;20043;-62
2022/02/03 07:13:11;;;;;;;85.18;39.00;;;;;;;;;;5146669;27;20143;-62
2022/02/03 07:15:37;;;;;;;78.85;35.05;;;;;;;;;;5152107;27;20058;-62
2022/02/03 07:18:04;;;;;;;74.65;36.05;;;;;;;;;;5155599;27;20058;-62
2022/02/03 07:20:31;;;;;;;71.70;33.45;;;;;;;;;;5145549;27;20043;-62
2022/02/03 07:22:57;;;;;;;77.55;36.30;;;;;;;;;;5147016;27;20075;-62
2022/02/03 07:25:23;;;;;;;75.85;35.45;;;;;;;;;;5157462;27;20074;-62
2022/02/03 07:27:49;;;;;;;70.47;32.50;;;;;;;;;;5144652;28;20102;-62
2022/02/03 07:30:16;;;;;;;59.35;29.65;;;;;;;;;;5145222;27;20050;-62
2022/02/03 07:32:42;;;;;;;70.28;34.20;;;;;;;;;;5144466;27;20039;-62
2022/02/03 07:35:09;;;;;;;65.05;30.58;;;;;;;;;;5145197;27;20043;-62
2022/02/03 07:37:49;;;;;;;65.90;30.35;;;;;;;;;;5144123;27;20043;-62
2022/02/03 07:40:16;;;;;;;58.25;29.80;;;;;;;;;;5144864;27;20078;-62
2022/02/03 07:42:46;;;;;;;63.47;28.85;;;;;;;;;;5144728;27;20080;-62
2022/02/03 07:45:12;;;;;;;43.13;23.98;;;;;;;;;;5137474;27;20070;-62
2022/02/03 07:47:45;;;;;;;57.85;28.40;;;;;;;;;;5144773;28;20055;-61
2022/02/03 07:50:11;;;;;;;63.30;30.27;;;;;;;;;;5144911;28;20040;-62
2022/02/03 07:52:37;;;;;;;61.47;27.10;;;;;;;;;;5144411;27;20289;-61
2022/02/03 07:55:04;;;;;;;61.83;27.50;;;;;;;;;;5145054;27;20043;-61
2022/02/03 07:57:30;;;;;;;60.03;26.98;;;;;;;;;;5144726;28;20050;-62
2022/02/03 07:59:56;;;;;;;46.08;23.15;;;;;;;;;;5144734;28;20042;-62
2022/02/03 08:02:22;;;;;;;53.58;24.65;;;;;;;;;;5145693;27;20103;-62
2022/02/03 08:04:49;;;;;;;41.85;22.60;;;;;;;;;;5154678;27;20176;-61
2022/02/03 08:07:18;;;;;;;53.42;25.23;;;;;;;;;;5156028;27;21367;-62
2022/02/03 08:09:55;;;;;;;50.45;25.73;;;;;;;;;;5153875;27;20467;-61
2022/02/03 08:12:26;;;;;;;55.90;26.92;;;;;;;;;;5160022;27;20109;-61
2022/02/03 08:14:53;;;;;;;53.45;26.85;;;;;;;;;;5147436;27;20055;-61
2022/02/03 08:17:35;;;;;;;58.55;27.45;;;;;;;;;;5147229;27;20071;-61
2022/02/03 08:20:06;;;;;;;53.78;25.73;;;;;;;;;;5139047;27;20039;-61
2022/02/03 08:22:41;;;;;;;44.40;24.48;;;;;;;;;;5149592;27;20126;-62
2022/02/03 08:25:15;;;;;;;47.17;26.60;;;;;;;;;;5152160;27;20055;-61
2022/02/03 08:30:32;;;;;;;58.03;30.10;;;;;;;;;;5145003;27;20058;-61
2022/02/03 08:33:00;;;;;;;61.60;31.55;;;;;;;;;;5143265;27;20063;-62
2022/02/03 08:35:36;;;;;;;50.40;26.30;;;;;;;;;;5146811;27;20099;-62
2022/02/03 08:43:16;;;;;;;;;;;;;;;;;;5145337;27;20051;-62
2022/02/03 08:45:44;;;;;;;54.15;29.05;;;;;;;;;;5141740;27;20004;-62
2022/02/03 08:48:10;;;;;;;49.40;28.58;;;;;;;;;;5146063;27;20070;-62
2022/02/03 08:50:37;;;;;;;52.07;30.63;;;;;;;;;;5144591;27;20043;-62
2022/02/03 08:55:51;;;;;;;52.88;30.33;;;;;;;;;;5146390;27;20455;-62
2022/02/03 09:39:24;;;;;;;35.45;19.60;;;;;;;;;;5121647;27;20090;-62
2022/02/03 10:00:04;;;;;;;35.00;17.33;;;;;;;;;;5140817;27;20141;-60
2022/02/03 10:02:27;;;;;;;36.92;15.63;;;;;;;;;;5141707;27;20083;-60
2022/02/03 10:04:56;;;;;;;37.72;17.67;;;;;;;;;;5144987;27;20043;-60
2022/02/03 10:07:25;;;;;;;36.17;16.35;;;;;;;;;;5144116;27;20085;-60
2022/02/03 10:09:52;;;;;;;30.80;16.00;;;;;;;;;;5145060;27;20042;-60
2022/02/03 10:12:19;;;;;;;29.42;15.55;;;;;;;;;;5144436;27;20444;-60
2022/02/03 10:14:47;;;;;;;29.52;16.58;;;;;;;;;;5137059;27;20051;-61
2022/02/03 10:17:16;;;;;;;36.67;16.38;;;;;;;;;;5142769;27;20125;-61
2022/02/03 10:19:48;;;;;;;33.92;15.50;;;;;;;;;;5145121;27;20130;-61
2022/02/03 10:22:16;;;;;;;24.88;13.93;;;;;;;;;;5133759;27;20043;-61
2022/02/03 10:24:45;;;;;;;;;;;;;;;;;;5146132;27;20043;-60
2022/02/03 10:27:20;;;;;;;35.45;17.20;;;;;;;;;;5141117;27;19923;-61
2022/02/03 10:29:47;;;;;;;27.95;14.23;;;;;;;;;;5144991;27;20039;-60
2022/02/03 10:32:13;;;;;;;24.58;15.02;;;;;;;;;;5141178;27;20035;-60
2022/02/03 10:34:41;;;;;;;29.50;15.20;;;;;;;;;;5139609;27;20067;-60
2022/02/03 10:44:57;;;;;;;27.65;13.73;;;;;;;;;;5144573;27;20050;-60
2022/02/03 10:58:21;;;;;;;22.00;16.10;;;;;;;;;;5144318;27;20047;-61
2022/02/03 11:01:11;;;;;;;24.77;16.35;;;;;;;;;;5144192;27;20510;-61
2022/02/03 11:09:04;;;;;;;27.98;16.02;;;;;;;;;;5144426;27;20039;-61
2022/02/03 11:11:39;;;;;;;26.88;15.68;;;;;;;;;;5144317;27;20078;-61
2022/02/03 11:14:06;;;;;;;34.58;18.13;;;;;;;;;;5144860;28;20062;-61
2022/02/03 11:16:37;;;;;;;30.42;18.08;;;;;;;;;;5137698;27;20054;-61
2022/02/03 11:19:05;;;;;;;32.28;19.25;;;;;;;;;;5137255;28;20036;-61
2022/02/03 11:21:33;;;;;;;30.02;18.83;;;;;;;;;;5142228;27;20118;-62
2022/02/03 11:24:05;;;;;;;28.73;17.73;;;;;;;;;;5142394;28;20043;-61
2022/02/03 11:30:16;;;;;;;38.97;18.92;;;;;;;;;;5137650;28;20062;-61
2022/02/03 11:32:30;;;;;;;35.40;18.27;;;;;;;;;;5139699;27;20043;-61
2022/02/03 11:43:46;;;;;;;33.83;20.23;;;;;;;;;;5143439;27;20062;-61
2022/02/03 11:46:36;;;;;;;34.17;18.67;;;;;;;;;;5137989;27;20047;-61
2022/02/03 11:49:19;;;;;;;33.67;19.73;;;;;;;;;;5144046;27;20051;-61
2022/02/03 12:05:16;;;;;;;26.95;16.83;;;;;;;;;;5149031;27;20070;-61
2022/02/03 12:08:21;;;;;;;25.38;14.10;;;;;;;;;;5146989;27;20035;-61
2022/02/03 12:18:56;;;;;;;24.48;15.60;;;;;;;;;;5135270;27;20090;-62
2022/02/03 12:21:59;;;;;;;26.40;16.05;;;;;;;;;;5136564;27;20043;-62
2022/02/03 12:24:43;;;;;;;23.52;13.95;;;;;;;;;;5145511;27;20047;-62
2022/02/03 12:27:26;;;;;;;28.95;14.77;;;;;;;;;;5147539;27;20450;-62
2022/02/03 12:30:00;;;;;;;24.92;15.43;;;;;;;;;;5146415;27;20042;-62
2022/02/03 12:40:56;;;;;;;21.10;12.13;;;;;;;;;;5145633;27;20047;-62
2022/02/03 12:43:32;;;;;;;24.27;11.07;;;;;;;;;;5146112;27;20138;-62
2022/02/03 12:46:01;;;;;;;20.17;10.13;;;;;;;;;;5147301;27;20054;-61
2022/02/03 12:48:29;;;;;;;19.88;11.32;;;;;;;;;;5142645;27;20039;-61
2022/02/03 12:50:56;;;;;;;19.85;12.23;;;;;;;;;;5145630;27;20603;-63
2022/02/03 12:53:22;;;;;;;22.15;12.27;;;;;;;;;;5136527;27;20100;-61
2022/02/03 12:55:51;;;;;;;22.10;12.80;;;;;;;;;;5151280;27;20078;-61
2022/02/03 12:58:23;;;;;;;17.33;11.68;;;;;;;;;;5151536;27;20047;-61
2022/02/03 13:03:20;;;;;;;19.25;11.50;;;;;;;;;;5158567;27;20081;-61
2022/02/03 13:05:54;;;;;;;20.98;10.38;;;;;;;;;;5145201;27;20047;-63
2022/02/03 13:08:30;;;;;;;17.38;11.38;;;;;;;;;;5145355;27;20062;-61
2022/02/03 13:11:06;;;;;;;27.33;12.93;;;;;;;;;;5145785;27;20047;-61
2022/02/03 13:13:43;;;;;;;18.48;10.65;;;;;;;;;;5143047;27;20058;-61
2022/02/03 13:16:09;;;;;;;19.63;11.40;;;;;;;;;;5144697;27;20043;-61
2022/02/03 13:18:43;;;;;;;16.77;11.63;;;;;;;;;;5145230;27;20058;-61
2022/02/03 13:21:57;;;;;;;22.15;11.35;;;;;;;;;;5145755;27;20066;-61
2022/02/03 13:24:42;;;;;;;15.75;10.90;;;;;;;;;;5137027;27;20039;-61
2022/02/03 13:26:57;;;;;;;27.15;12.10;;;;;;;;;;5146122;27;20047;-61
2022/02/03 13:29:53;;;;;;;17.50;10.85;;;;;;;;;;5147264;27;20058;-61
2022/02/03 13:32:19;;;;;;;14.35;10.70;;;;;;;;;;5150020;27;20043;-61
2022/02/03 13:35:21;;;;;;;15.38;10.55;;;;;;;;;;5145909;27;20054;-62
2022/02/03 13:37:45;;;;;;;16.27;11.38;;;;;;;;;;5143533;27;20055;-61
2022/02/03 13:40:15;;;;;;;17.10;10.43;;;;;;;;;;5137821;27;20491;-61
2022/02/03 13:42:50;;;;;;;19.38;11.23;;;;;;;;;;5145494;27;20054;-61
2022/02/03 13:45:18;;;;;;;16.83;9.88;;;;;;;;;;5145827;27;20043;-61
2022/02/03 13:47:46;;;;;;;15.82;11.93;;;;;;;;;;5141760;27;20454;-61
2022/02/03 13:50:28;;;;;;;20.65;11.95;;;;;;;;;;5145883;27;20070;-61
2022/02/03 13:53:05;;;;;;;22.20;10.27;;;;;;;;;;5141929;27;20636;-61
2022/02/03 14:22:26;;;;;;;11.07;5.65;;;;;;;;;;5135528;27;20050;-61
2022/02/03 14:27:53;;;;;;;8.63;6.05;;;;;;;;;;5080103;28;20072;-61
2022/02/03 14:30:22;;;;;;;7.47;6.00;;;;;;;;;;5080424;28;20585;-61
2022/02/03 14:32:51;;;;;;;12.30;5.60;;;;;;;;;;5080789;28;20044;-61
2022/02/03 14:35:18;;;;;;;7.28;5.55;;;;;;;;;;5078841;28;20055;-61
2022/02/03 14:38:16;;;;;;;8.63;5.90;;;;;;;;;;5079924;28;20053;-61
2022/02/03 14:40:37;;;;;;;9.45;4.80;;;;;;;;;;5059266;28;20084;-61
2022/02/03 14:43:05;;;;;;;6.68;4.60;;;;;;;;;;5078831;28;20053;-61
2022/02/03 14:45:31;;;;;;;5.97;4.65;;;;;;;;;;5079688;28;20127;-61
2022/02/03 14:47:58;;;;;;;5.97;4.63;;;;;;;;;;5080003;28;20049;-62
2022/02/03 14:50:24;;;;;;;6.35;4.10;;;;;;;;;;5079360;28;20044;-61
2022/02/03 14:52:58;;;;;;;4.22;3.83;;;;;;;;;;5078279;28;20044;-63
2022/02/03 14:58:23;;;;;;;7.05;4.55;;;;;;;;;;5079578;28;20045;-62
2022/02/03 15:00:50;;;;;;;4.80;4.18;;;;;;;;;;5082466;27;20108;-61
2022/02/03 15:03:17;;;;;;;6.18;4.47;;;;;;;;;;5140194;27;20058;-61
2022/02/03 15:05:43;;;;;;;6.47;4.97;;;;;;;;;;5139425;27;20072;-61
2022/02/03 15:08:17;;;;;;;10.98;5.28;;;;;;;;;;5143108;27;20039;-61
2022/02/03 15:10:53;;;;;;;7.57;6.32;;;;;;;;;;5142527;27;20046;-61
2022/02/03 15:16:04;;;;;;;9.63;6.65;;;;;;;;;;5142331;27;20198;-61
2022/02/03 15:18:31;;;;;;;9.98;7.10;;;;;;;;;;5138188;27;20055;-61
2022/02/03 15:20:57;;;;;;;8.73;7.40;;;;;;;;;;5136785;27;20045;-61
2022/02/03 15:23:24;;;;;;;12.00;8.40;;;;;;;;;;5141700;27;20043;-61
2022/02/03 15:25:50;;;;;;;12.07;7.10;;;;;;;;;;5143339;27;20045;-62
2022/02/03 15:28:18;;;;;;;9.77;6.22;;;;;;;;;;5138403;27;20060;-61
2022/02/03 15:30:44;;;;;;;10.65;8.00;;;;;;;;;;5140985;27;20510;-63
2022/02/03 15:33:10;;;;;;;17.75;8.23;;;;;;;;;;5141390;27;20172;-62
2022/02/03 15:35:42;;;;;;;13.15;8.63;;;;;;;;;;5134888;27;20035;-62
2022/02/03 15:38:12;;;;;;;11.60;7.93;;;;;;;;;;5140439;27;20039;-62
2022/02/03 15:40:39;;;;;;;10.15;7.68;;;;;;;;;;5140655;27;20046;-62
2022/02/03 15:43:09;;;;;;;10.63;6.28;;;;;;;;;;5143458;27;20047;-64
2022/02/03 15:45:39;;;;;;;12.68;8.57;;;;;;;;;;5143397;27;20409;-62
2022/02/03 15:48:25;;;;;;;13.27;8.60;;;;;;;;;;5135280;27;20043;-62
2022/02/03 15:56:25;;;;;;;15.00;8.90;;;;;;;;;;5142059;27;20043;-61
2022/02/03 16:17:42;;;;;;;15.95;10.02;;;;;;;;;;5121293;28;20051;-63
2022/02/03 16:20:22;;;;;;;18.45;10.98;;;;;;;;;;5085792;28;20036;-63
2022/02/03 16:22:56;;;;;;;22.67;11.40;;;;;;;;;;5070107;28;20248;-63
2022/02/03 16:25:57;;;;;;;16.92;10.68;;;;;;;;;;5099846;28;20109;-63
2022/02/03 16:52:47;;;;;;;20.63;12.23;;;;;;;;;;5102067;28;20063;-65
2022/02/03 16:55:18;;;;;;;28.02;16.13;;;;;;;;;;5110174;28;20143;-65
2022/02/03 16:57:46;;;;;;;25.67;13.55;;;;;;;;;;5104941;28;20064;-65
2022/02/03 17:00:16;;;;;;;26.45;14.07;;;;;;;;;;5090136;28;20044;-65
2022/02/03 17:02:42;;;;;;;26.00;13.80;;;;;;;;;;5095433;28;20048;-65
2022/02/03 17:05:09;;;;;;;19.92;11.70;;;;;;;;;;5106736;28;20040;-65
2022/02/03 17:07:35;;;;;;;20.85;12.95;;;;;;;;;;5107084;28;20044;-64
2022/02/03 17:10:02;;;;;;;20.52;11.02;;;;;;;;;;5086859;28;20064;-64
2022/02/03 17:12:28;;;;;;;21.85;13.55;;;;;;;;;;5100046;28;20051;-66
2022/02/03 17:14:54;;;;;;;20.80;12.45;;;;;;;;;;5081601;28;20044;-65
2022/02/03 17:17:21;;;;;;;27.75;13.35;;;;;;;;;;5102329;28;20051;-65
2022/02/03 17:19:50;;;;;;;22.92;12.93;;;;;;;;;;5109087;28;20059;-63
2022/02/03 17:22:19;;;;;;;21.98;14.73;;;;;;;;;;5085407;28;20044;-64
2022/02/03 17:24:58;;;;;;;22.50;13.38;;;;;;;;;;5150968;27;20054;-64
2022/02/03 17:27:31;;;;;;;22.83;13.13;;;;;;;;;;5146318;27;20062;-64
2022/02/03 18:10:10;;;;;;;28.60;16.27;;;;;;;;;;5125687;27;20079;-64
2022/02/03 18:48:39;;;;;;;29.80;17.27;;;;;;;;;;5127066;27;20050;-63
2022/02/03 18:57:58;;;;;;;30.73;17.13;;;;;;;;;;5151910;27;20130;-63
2022/02/03 19:00:46;;;;;;;32.53;17.48;;;;;;;;;;5152819;27;20042;-63
2022/02/03 20:01:19;;;;;;;32.92;17.08;;;;;;;;;;5154696;27;20072;-63
2022/02/03 20:08:15;;;;;;;33.47;15.07;;;;;;;;;;5159083;27;20059;-63
2022/02/03 20:10:45;;;;;;;35.90;17.95;;;;;;;;;;5155661;27;20087;-63
2022/02/03 20:13:11;;;;;;;28.90;17.83;;;;;;;;;;5144450;27;20066;-63
2022/02/03 20:15:39;;;;;;;31.08;17.48;;;;;;;;;;5151577;27;20061;-63
2022/02/03 20:18:05;;;;;;;;;;;;;;;;;;5164857;27;20074;-63
2022/02/03 20:20:32;;;;;;;29.75;16.73;;;;;;;;;;5146786;27;19957;-63
2022/02/03 20:23:01;;;;;;;28.33;17.73;;;;;;;;;;5146936;27;20071;-63
2022/02/03 20:25:29;;;;;;;34.08;17.83;;;;;;;;;;5142646;27;20395;-63
2022/02/03 20:27:55;;;;;;;39.17;18.27;;;;;;;;;;5158132;27;20060;-63
2022/02/03 20:30:21;;;;;;;36.80;17.33;;;;;;;;;;5163938;27;20039;-63
2022/02/03 20:32:47;;;;;;;35.47;17.23;;;;;;;;;;5165524;27;20042;-64
2022/02/03 20:35:13;;;;;;;35.40;16.92;;;;;;;;;;5164549;27;20054;-63
2022/02/03 20:37:39;;;;;;;35.88;15.73;;;;;;;;;;5159652;27;20064;-63
2022/02/03 20:40:06;;;;;;;40.78;17.50;;;;;;;;;;5166335;27;20054;-63
2022/02/03 20:42:32;;;;;;;36.00;17.83;;;;;;;;;;5161209;27;20106;-63
2022/02/03 20:44:58;;;;;;;35.63;18.45;;;;;;;;;;5163304;27;20035;-63
2022/02/03 20:47:25;;;;;;;39.15;16.80;;;;;;;;;;5150013;27;20046;-63
2022/02/03 20:49:51;;;;;;;33.42;19.50;;;;;;;;;;5154356;27;20088;-63
2022/02/03 20:52:18;;;;;;;38.95;17.65;;;;;;;;;;5138304;27;20042;-63
2022/02/03 20:54:45;;;;;;;38.33;17.30;;;;;;;;;;5138633;27;20054;-63
2022/02/03 20:57:12;;;;;;;42.73;17.57;;;;;;;;;;5146624;27;20065;-63
2022/02/03 21:02:40;;;;;;;32.50;16.80;;;;;;;;;;5152906;27;20043;-63
2022/02/03 21:05:15;;;;;;;40.33;16.92;;;;;;;;;;5148276;27;20046;-63
2022/02/03 21:07:43;;;;;;;46.10;17.60;;;;;;;;;;5167801;27;20064;-63
2022/02/03 21:10:12;;;;;;;34.88;17.73;;;;;;;;;;5161894;27;20044;-63
2022/02/03 21:12:38;;;;;;;34.88;17.63;;;;;;;;;;5166843;27;20051;-63
2022/02/03 21:15:06;;;;;;;30.05;15.02;;;;;;;;;;5153822;27;20054;-63
2022/02/03 21:17:32;;;;;;;34.67;18.98;;;;;;;;;;5153236;27;20099;-63
2022/02/03 21:20:12;;;;;;;45.42;17.85;;;;;;;;;;5147566;27;20088;-63
2022/02/03 21:22:38;;;;;;;35.13;17.35;;;;;;;;;;5164378;27;20542;-63
2022/02/03 21:25:16;;;;;;;39.22;15.50;;;;;;;;;;5151318;27;20399;-63
2022/02/03 21:27:42;;;;;;;35.45;17.85;;;;;;;;;;5127662;27;20055;-63
2022/02/03 21:30:09;;;;;;;36.90;17.30;;;;;;;;;;5146042;27;20039;-63
2022/02/03 21:32:37;;;;;;;33.22;14.85;;;;;;;;;;5146644;27;20057;-63
2022/02/03 21:35:03;;;;;;;42.20;16.67;;;;;;;;;;5153908;27;20047;-63
2022/02/03 21:37:31;;;;;;;42.97;19.70;;;;;;;;;;5156527;27;20088;-63
2022/02/03 21:39:57;;;;;;;39.47;18.23;;;;;;;;;;5152034;27;20047;-63
2022/02/03 21:42:23;;;;;;;37.80;17.58;;;;;;;;;;5155016;27;20426;-63
2022/02/03 21:44:49;;;;;;;35.85;17.70;;;;;;;;;;5159700;27;20160;-63
2022/02/03 21:47:15;;;;;;;36.78;17.08;;;;;;;;;;5156141;27;20098;-63
2022/02/03 21:49:41;;;;;;;37.33;16.38;;;;;;;;;;5148256;27;20046;-63
2022/02/03 21:52:09;;;;;;;47.22;16.95;;;;;;;;;;5143170;27;20123;-64
2022/02/03 21:54:37;;;;;;;39.83;19.13;;;;;;;;;;5139374;27;20039;-63
2022/02/03 21:57:03;;;;;;;45.83;18.05;;;;;;;;;;5148647;27;20051;-63
2022/02/03 21:59:30;;;;;;;31.27;16.17;;;;;;;;;;5150641;27;20056;-63
2022/02/03 22:01:56;;;;;;;38.53;18.20;;;;;;;;;;5150537;27;20490;-63
2022/02/03 22:04:22;;;;;;;35.33;17.27;;;;;;;;;;5147493;27;20039;-63
2022/02/03 22:06:48;;;;;;;35.80;18.30;;;;;;;;;;5144616;27;20043;-63
2022/02/03 22:09:14;;;;;;;36.72;17.70;;;;;;;;;;5148188;27;20050;-63
2022/02/03 22:11:41;;;;;;;32.85;18.25;;;;;;;;;;5145491;27;20411;-63
2022/02/03 22:14:07;;;;;;;40.65;18.45;;;;;;;;;;5150931;27;20043;-63
2022/02/03 22:16:35;;;;;;;34.53;18.20;;;;;;;;;;5151911;27;20049;-63
2022/02/03 22:19:01;;;;;;;;;;;;;;;;;;5134355;27;20072;-63
2022/02/03 22:21:48;;;;;;;28.88;16.52;;;;;;;;;;5124446;27;19931;-63
2022/02/03 22:24:29;;;;;;;37.65;18.13;;;;;;;;;;5139764;27;20035;-63
2022/02/03 22:41:44;;;;;;;33.83;17.40;;;;;;;;;;5143764;27;20046;-63
2022/02/03 22:46:06;;;;;;;34.42;15.35;;;;;;;;;;5122769;28;20052;-63
2022/02/03 22:48:32;;;;;;;42.67;18.02;;;;;;;;;;5109460;27;20060;-62
2022/02/03 22:51:01;;;;;;;37.05;16.20;;;;;;;;;;5122351;28;20047;-63
2022/02/03 22:53:32;;;;;;;31.50;16.20;;;;;;;;;;5122683;27;20055;-63
2022/02/03 22:55:59;;;;;;;30.08;16.42;;;;;;;;;;5122579;28;20139;-64
2022/02/03 23:01:03;;;;;;;31.98;17.17;;;;;;;;;;5121341;28;20044;-63
2022/02/03 23:03:29;;;;;;;34.58;17.90;;;;;;;;;;5118595;27;20047;-63
2022/02/03 23:05:56;;;;;;;35.08;19.08;;;;;;;;;;5130935;27;20507;-63
2022/02/03 23:11:37;;;;;;;33.92;17.05;;;;;;;;;;5145099;27;20129;-64
2022/02/03 23:14:09;;;;;;;40.20;18.73;;;;;;;;;;5142888;27;20054;-63
2022/02/03 23:17:02;;;;;;;36.97;18.08;;;;;;;;;;5143688;27;20047;-64
2022/02/03 23:19:47;;;;;;;42.80;19.90;;;;;;;;;;5146044;27;20039;-63
2022/02/03 23:22:14;;;;;;;38.95;18.83;;;;;;;;;;5142779;28;20040;-64
2022/02/03 23:24:44;;;;;;;35.42;20.10;;;;;;;;;;5145355;27;20057;-63
2022/02/03 23:27:38;;;;;;;42.47;21.27;;;;;;;;;;5142290;27;20035;-61
2022/02/03 23:30:03;;;;;;;38.40;19.77;;;;;;;;;;5145827;27;20051;-62
2022/02/03 23:32:30;;;;;;;34.85;18.42;;;;;;;;;;5144967;28;20035;-62
2022/02/03 23:35:07;;;;;;;36.88;19.33;;;;;;;;;;5150993;27;20043;-62
2022/02/03 23:37:37;;;;;;;36.80;21.55;;;;;;;;;;5140935;27;20057;-63
2022/02/03 23:40:10;;;;;;;34.88;20.58;;;;;;;;;;5149247;27;20043;-61
